sensor_id;sensor_type;location;lat;lon;timestamp;P1;durP1;ratioP1;P2;durP2;ratioP2
12990;SDS011;6560;57.692;11.958;2024-02-23T00:00:06;3.63;;;1.90;;
12990;SDS011;6560;57.692;11.958;2024-02-23T00:02:32;5.47;;;1.60;;
12990;SDS011;6560;57.692;11.958;2024-02-23T00:04:58;6.10;;;2.03;;
12990;SDS011;6560;57.692;11.958;2024-02-23T00:07:23;6.43;;;1.87;;
12990;SDS011;6560;57.692;11.958;2024-02-23T00:09:48;2.73;;;1.53;;
12990;SDS011;6560;57.692;11.958;2024-02-23T00:12:14;1.67;;;1.57;;
12990;SDS011;6560;57.692;11.958;2024-02-23T00:14:39;2.80;;;1.30;;
12990;SDS011;6560;57.692;11.958;2024-02-23T00:17:05;3.53;;;1.40;;
12990;SDS011;6560;57.692;11.958;2024-02-23T00:19:31;2.53;;;1.67;;
12990;SDS011;6560;57.692;11.958;2024-02-23T00:21:57;2.83;;;1.50;;
12990;SDS011;6560;57.692;11.958;2024-02-23T00:24:24;1.23;;;1.17;;
12990;SDS011;6560;57.692;11.958;2024-02-23T00:26:50;1.10;;;1.00;;
12990;SDS011;6560;57.692;11.958;2024-02-23T00:29:16;5.27;;;1.27;;
12990;SDS011;6560;57.692;11.958;2024-02-23T00:31:42;1.53;;;1.10;;
12990;SDS011;6560;57.692;11.958;2024-02-23T00:34:08;4.00;;;1.27;;
12990;SDS011;6560;57.692;11.958;2024-02-23T00:36:39;2.70;;;0.80;;
12990;SDS011;6560;57.692;11.958;2024-02-23T00:39:05;3.93;;;1.10;;
12990;SDS011;6560;57.692;11.958;2024-02-23T00:41:32;4.30;;;1.10;;
12990;SDS011;6560;57.692;11.958;2024-02-23T00:43:58;2.47;;;0.90;;
12990;SDS011;6560;57.692;11.958;2024-02-23T00:46:23;6.07;;;1.10;;
12990;SDS011;6560;57.692;11.958;2024-02-23T00:48:49;3.03;;;0.73;;
12990;SDS011;6560;57.692;11.958;2024-02-23T00:51:14;1.77;;;1.00;;
12990;SDS011;6560;57.692;11.958;2024-02-23T00:53:39;2.83;;;0.80;;
12990;SDS011;6560;57.692;11.958;2024-02-23T00:56:05;1.10;;;0.93;;
12990;SDS011;6560;57.692;11.958;2024-02-23T00:58:31;6.23;;;1.27;;
12990;SDS011;6560;57.692;11.958;2024-02-23T01:00:56;3.53;;;0.90;;
12990;SDS011;6560;57.692;11.958;2024-02-23T01:03:21;3.90;;;0.80;;
12990;SDS011;6560;57.692;11.958;2024-02-23T01:05:47;5.13;;;0.70;;
12990;SDS011;6560;57.692;11.958;2024-02-23T01:08:13;1.57;;;0.70;;
12990;SDS011;6560;57.692;11.958;2024-02-23T01:10:38;6.83;;;1.27;;
12990;SDS011;6560;57.692;11.958;2024-02-23T01:13:04;0.73;;;0.73;;
12990;SDS011;6560;57.692;11.958;2024-02-23T01:15:30;6.50;;;1.20;;
12990;SDS011;6560;57.692;11.958;2024-02-23T01:17:55;2.33;;;1.20;;
12990;SDS011;6560;57.692;11.958;2024-02-23T01:20:21;3.33;;;0.93;;
12990;SDS011;6560;57.692;11.958;2024-02-23T01:22:47;1.10;;;1.10;;
12990;SDS011;6560;57.692;11.958;2024-02-23T01:25:12;3.23;;;1.00;;
12990;SDS011;6560;57.692;11.958;2024-02-23T01:27:40;6.07;;;1.33;;
12990;SDS011;6560;57.692;11.958;2024-02-23T01:30:06;5.33;;;0.90;;
12990;SDS011;6560;57.692;11.958;2024-02-23T01:32:32;1.30;;;1.00;;
12990;SDS011;6560;57.692;11.958;2024-02-23T01:34:58;3.37;;;1.17;;
12990;SDS011;6560;57.692;11.958;2024-02-23T01:37:23;2.40;;;1.20;;
12990;SDS011;6560;57.692;11.958;2024-02-23T01:39:48;4.77;;;1.20;;
12990;SDS011;6560;57.692;11.958;2024-02-23T01:42:14;5.73;;;1.20;;
12990;SDS011;6560;57.692;11.958;2024-02-23T01:44:39;2.27;;;1.20;;
12990;SDS011;6560;57.692;11.958;2024-02-23T01:47:05;1.33;;;1.00;;
12990;SDS011;6560;57.692;11.958;2024-02-23T01:49:30;2.93;;;1.00;;
12990;SDS011;6560;57.692;11.958;2024-02-23T01:51:58;2.80;;;1.07;;
12990;SDS011;6560;57.692;11.958;2024-02-23T01:54:24;3.70;;;1.17;;
12990;SDS011;6560;57.692;11.958;2024-02-23T01:56:50;0.93;;;0.93;;
12990;SDS011;6560;57.692;11.958;2024-02-23T01:59:15;1.43;;;1.07;;
12990;SDS011;6560;57.692;11.958;2024-02-23T02:01:42;1.77;;;0.87;;
12990;SDS011;6560;57.692;11.958;2024-02-23T02:04:08;1.47;;;0.90;;
12990;SDS011;6560;57.692;11.958;2024-02-23T02:06:33;4.20;;;1.03;;
12990;SDS011;6560;57.692;11.958;2024-02-23T02:08:59;4.57;;;0.93;;
12990;SDS011;6560;57.692;11.958;2024-02-23T02:11:24;5.00;;;1.60;;
12990;SDS011;6560;57.692;11.958;2024-02-23T02:13:50;4.33;;;1.10;;
12990;SDS011;6560;57.692;11.958;2024-02-23T02:16:15;1.43;;;0.80;;
12990;SDS011;6560;57.692;11.958;2024-02-23T02:18:40;2.50;;;0.90;;
12990;SDS011;6560;57.692;11.958;2024-02-23T02:21:06;1.27;;;1.00;;
12990;SDS011;6560;57.692;11.958;2024-02-23T02:23:31;1.50;;;0.90;;
12990;SDS011;6560;57.692;11.958;2024-02-23T02:25:57;6.53;;;1.20;;
12990;SDS011;6560;57.692;11.958;2024-02-23T02:28:23;2.13;;;0.83;;
12990;SDS011;6560;57.692;11.958;2024-02-23T02:30:50;2.57;;;0.90;;
12990;SDS011;6560;57.692;11.958;2024-02-23T02:33:16;3.03;;;0.77;;
12990;SDS011;6560;57.692;11.958;2024-02-23T02:35:41;3.87;;;0.80;;
12990;SDS011;6560;57.692;11.958;2024-02-23T02:38:07;1.47;;;0.70;;
12990;SDS011;6560;57.692;11.958;2024-02-23T02:40:33;0.70;;;0.60;;
12990;SDS011;6560;57.692;11.958;2024-02-23T02:42:58;4.23;;;0.90;;
12990;SDS011;6560;57.692;11.958;2024-02-23T02:45:24;1.43;;;0.70;;
12990;SDS011;6560;57.692;11.958;2024-02-23T02:47:49;0.50;;;0.50;;
12990;SDS011;6560;57.692;11.958;2024-02-23T02:50:15;1.83;;;0.70;;
12990;SDS011;6560;57.692;11.958;2024-02-23T02:52:40;1.70;;;0.40;;
12990;SDS011;6560;57.692;11.958;2024-02-23T02:55:06;3.67;;;0.67;;
12990;SDS011;6560;57.692;11.958;2024-02-23T02:57:32;3.00;;;0.70;;
12990;SDS011;6560;57.692;11.958;2024-02-23T02:59:57;4.37;;;0.63;;
12990;SDS011;6560;57.692;11.958;2024-02-23T03:02:23;2.83;;;0.50;;
12990;SDS011;6560;57.692;11.958;2024-02-23T03:04:49;0.97;;;0.70;;
12990;SDS011;6560;57.692;11.958;2024-02-23T03:07:15;2.70;;;0.60;;
12990;SDS011;6560;57.692;11.958;2024-02-23T03:09:41;0.70;;;0.50;;
12990;SDS011;6560;57.692;11.958;2024-02-23T03:12:07;1.67;;;0.50;;
12990;SDS011;6560;57.692;11.958;2024-02-23T03:14:32;2.53;;;0.50;;
12990;SDS011;6560;57.692;11.958;2024-02-23T03:16:59;1.63;;;0.50;;
12990;SDS011;6560;57.692;11.958;2024-02-23T03:19:24;0.50;;;0.43;;
12990;SDS011;6560;57.692;11.958;2024-02-23T03:21:50;0.67;;;0.30;;
12990;SDS011;6560;57.692;11.958;2024-02-23T03:24:16;0.83;;;0.70;;
12990;SDS011;6560;57.692;11.958;2024-02-23T03:26:42;1.47;;;0.40;;
12990;SDS011;6560;57.692;11.958;2024-02-23T03:29:07;1.17;;;0.57;;
12990;SDS011;6560;57.692;11.958;2024-02-23T03:31:33;2.50;;;0.47;;
12990;SDS011;6560;57.692;11.958;2024-02-23T03:33:59;4.53;;;0.57;;
12990;SDS011;6560;57.692;11.958;2024-02-23T03:36:24;1.70;;;0.40;;
12990;SDS011;6560;57.692;11.958;2024-02-23T03:38:50;2.73;;;0.70;;
12990;SDS011;6560;57.692;11.958;2024-02-23T03:41:15;1.03;;;0.50;;
12990;SDS011;6560;57.692;11.958;2024-02-23T03:43:41;3.50;;;1.00;;
12990;SDS011;6560;57.692;11.958;2024-02-23T03:46:06;4.43;;;0.80;;
12990;SDS011;6560;57.692;11.958;2024-02-23T03:48:32;3.27;;;0.90;;
12990;SDS011;6560;57.692;11.958;2024-02-23T03:50:57;7.07;;;2.23;;
12990;SDS011;6560;57.692;11.958;2024-02-23T03:53:23;6.33;;;2.20;;
12990;SDS011;6560;57.692;11.958;2024-02-23T03:55:48;7.57;;;2.50;;
12990;SDS011;6560;57.692;11.958;2024-02-23T03:58:14;7.57;;;2.80;;
12990;SDS011;6560;57.692;11.958;2024-02-23T04:00:39;3.57;;;2.77;;
12990;SDS011;6560;57.692;11.958;2024-02-23T04:03:04;7.73;;;4.37;;
12990;SDS011;6560;57.692;11.958;2024-02-23T04:05:30;8.00;;;4.33;;
12990;SDS011;6560;57.692;11.958;2024-02-23T04:07:55;10.63;;;4.10;;
12990;SDS011;6560;57.692;11.958;2024-02-23T04:10:21;2.50;;;1.97;;
12990;SDS011;6560;57.692;11.958;2024-02-23T04:12:46;15.03;;;3.20;;
12990;SDS011;6560;57.692;11.958;2024-02-23T04:15:12;8.33;;;3.80;;
12990;SDS011;6560;57.692;11.958;2024-02-23T04:17:37;5.87;;;1.53;;
12990;SDS011;6560;57.692;11.958;2024-02-23T04:20:05;5.43;;;1.80;;
12990;SDS011;6560;57.692;11.958;2024-02-23T04:22:31;4.77;;;2.03;;
12990;SDS011;6560;57.692;11.958;2024-02-23T04:24:57;7.13;;;1.77;;
12990;SDS011;6560;57.692;11.958;2024-02-23T04:27:22;6.33;;;1.50;;
12990;SDS011;6560;57.692;11.958;2024-02-23T04:29:48;16.80;;;2.47;;
12990;SDS011;6560;57.692;11.958;2024-02-23T04:32:13;7.90;;;2.53;;
12990;SDS011;6560;57.692;11.958;2024-02-23T04:34:39;10.47;;;2.07;;
12990;SDS011;6560;57.692;11.958;2024-02-23T04:37:05;9.87;;;2.23;;
12990;SDS011;6560;57.692;11.958;2024-02-23T04:39:30;10.43;;;1.90;;
12990;SDS011;6560;57.692;11.958;2024-02-23T04:41:56;13.63;;;2.90;;
12990;SDS011;6560;57.692;11.958;2024-02-23T04:44:22;16.00;;;2.40;;
12990;SDS011;6560;57.692;11.958;2024-02-23T04:46:47;10.17;;;1.90;;
12990;SDS011;6560;57.692;11.958;2024-02-23T04:49:13;13.30;;;2.27;;
12990;SDS011;6560;57.692;11.958;2024-02-23T04:51:38;11.87;;;2.70;;
12990;SDS011;6560;57.692;11.958;2024-02-23T04:54:04;22.00;;;2.27;;
12990;SDS011;6560;57.692;11.958;2024-02-23T04:56:29;11.10;;;1.60;;
12990;SDS011;6560;57.692;11.958;2024-02-23T04:58:55;12.20;;;2.60;;
12990;SDS011;6560;57.692;11.958;2024-02-23T05:01:20;9.23;;;1.77;;
12990;SDS011;6560;57.692;11.958;2024-02-23T05:03:46;9.37;;;3.00;;
12990;SDS011;6560;57.692;11.958;2024-02-23T05:06:11;5.87;;;1.93;;
12990;SDS011;6560;57.692;11.958;2024-02-23T05:08:37;16.17;;;2.70;;
12990;SDS011;6560;57.692;11.958;2024-02-23T05:11:03;14.20;;;2.33;;
12990;SDS011;6560;57.692;11.958;2024-02-23T05:13:29;15.43;;;2.20;;
12990;SDS011;6560;57.692;11.958;2024-02-23T05:15:55;8.00;;;2.37;;
12990;SDS011;6560;57.692;11.958;2024-02-23T05:18:20;14.13;;;2.43;;
12990;SDS011;6560;57.692;11.958;2024-02-23T05:20:46;13.83;;;2.37;;
12990;SDS011;6560;57.692;11.958;2024-02-23T05:23:11;13.83;;;2.63;;
12990;SDS011;6560;57.692;11.958;2024-02-23T05:25:37;14.60;;;2.50;;
12990;SDS011;6560;57.692;11.958;2024-02-23T05:28:02;18.33;;;3.87;;
12990;SDS011;6560;57.692;11.958;2024-02-23T05:30:28;12.20;;;2.70;;
12990;SDS011;6560;57.692;11.958;2024-02-23T05:32:56;10.13;;;2.63;;
12990;SDS011;6560;57.692;11.958;2024-02-23T05:35:23;10.33;;;3.13;;
12990;SDS011;6560;57.692;11.958;2024-02-23T05:37:48;21.87;;;4.17;;
12990;SDS011;6560;57.692;11.958;2024-02-23T05:40:15;12.73;;;2.97;;
12990;SDS011;6560;57.692;11.958;2024-02-23T05:42:40;16.57;;;4.10;;
12990;SDS011;6560;57.692;11.958;2024-02-23T05:45:06;15.63;;;3.67;;
12990;SDS011;6560;57.692;11.958;2024-02-23T05:47:37;7.33;;;2.83;;
12990;SDS011;6560;57.692;11.958;2024-02-23T05:50:03;6.47;;;2.73;;
12990;SDS011;6560;57.692;11.958;2024-02-23T05:52:33;15.40;;;3.10;;
12990;SDS011;6560;57.692;11.958;2024-02-23T05:54:58;14.60;;;2.90;;
12990;SDS011;6560;57.692;11.958;2024-02-23T05:57:27;21.03;;;3.17;;
12990;SDS011;6560;57.692;11.958;2024-02-23T05:59:53;16.33;;;4.60;;
12990;SDS011;6560;57.692;11.958;2024-02-23T06:02:20;16.27;;;3.13;;
12990;SDS011;6560;57.692;11.958;2024-02-23T06:04:45;23.47;;;3.43;;
12990;SDS011;6560;57.692;11.958;2024-02-23T06:07:11;17.43;;;3.40;;
12990;SDS011;6560;57.692;11.958;2024-02-23T06:09:36;17.13;;;3.83;;
12990;SDS011;6560;57.692;11.958;2024-02-23T06:12:02;21.30;;;4.13;;
12990;SDS011;6560;57.692;11.958;2024-02-23T06:14:27;13.43;;;2.73;;
12990;SDS011;6560;57.692;11.958;2024-02-23T06:16:53;17.17;;;3.67;;
12990;SDS011;6560;57.692;11.958;2024-02-23T06:19:18;18.23;;;2.80;;
12990;SDS011;6560;57.692;11.958;2024-02-23T06:21:47;13.17;;;2.63;;
12990;SDS011;6560;57.692;11.958;2024-02-23T06:24:13;17.23;;;4.43;;
12990;SDS011;6560;57.692;11.958;2024-02-23T06:26:39;17.23;;;4.13;;
12990;SDS011;6560;57.692;11.958;2024-02-23T06:29:04;17.27;;;2.73;;
12990;SDS011;6560;57.692;11.958;2024-02-23T06:31:30;13.37;;;2.67;;
12990;SDS011;6560;57.692;11.958;2024-02-23T06:33:58;12.00;;;2.27;;
12990;SDS011;6560;57.692;11.958;2024-02-23T06:36:24;15.00;;;3.30;;
12990;SDS011;6560;57.692;11.958;2024-02-23T06:38:49;14.47;;;3.33;;
12990;SDS011;6560;57.692;11.958;2024-02-23T06:41:15;10.50;;;2.17;;
12990;SDS011;6560;57.692;11.958;2024-02-23T06:43:40;8.67;;;1.90;;
12990;SDS011;6560;57.692;11.958;2024-02-23T06:46:06;9.20;;;1.60;;
12990;SDS011;6560;57.692;11.958;2024-02-23T06:48:33;10.30;;;1.97;;
12990;SDS011;6560;57.692;11.958;2024-02-23T06:50:59;10.97;;;2.83;;
12990;SDS011;6560;57.692;11.958;2024-02-23T06:53:25;8.43;;;3.23;;
12990;SDS011;6560;57.692;11.958;2024-02-23T06:55:50;9.87;;;2.27;;
12990;SDS011;6560;57.692;11.958;2024-02-23T06:58:15;13.27;;;2.80;;
12990;SDS011;6560;57.692;11.958;2024-02-23T07:00:41;13.13;;;2.90;;
12990;SDS011;6560;57.692;11.958;2024-02-23T07:03:08;15.40;;;2.50;;
12990;SDS011;6560;57.692;11.958;2024-02-23T07:05:34;21.37;;;5.37;;
12990;SDS011;6560;57.692;11.958;2024-02-23T07:08:00;18.63;;;3.40;;
12990;SDS011;6560;57.692;11.958;2024-02-23T07:10:26;20.30;;;3.40;;
12990;SDS011;6560;57.692;11.958;2024-02-23T07:12:52;20.50;;;3.60;;
12990;SDS011;6560;57.692;11.958;2024-02-23T07:15:19;23.43;;;4.17;;
12990;SDS011;6560;57.692;11.958;2024-02-23T07:17:45;18.77;;;3.77;;
12990;SDS011;6560;57.692;11.958;2024-02-23T07:20:11;25.73;;;5.23;;
12990;SDS011;6560;57.692;11.958;2024-02-23T07:22:36;20.60;;;4.17;;
12990;SDS011;6560;57.692;11.958;2024-02-23T07:25:02;17.37;;;3.80;;
12990;SDS011;6560;57.692;11.958;2024-02-23T07:27:29;27.27;;;3.73;;
12990;SDS011;6560;57.692;11.958;2024-02-23T07:29:55;18.63;;;4.20;;
12990;SDS011;6560;57.692;11.958;2024-02-23T07:32:20;32.80;;;4.30;;
12990;SDS011;6560;57.692;11.958;2024-02-23T07:34:46;23.40;;;4.70;;
12990;SDS011;6560;57.692;11.958;2024-02-23T07:37:11;20.93;;;4.60;;
12990;SDS011;6560;57.692;11.958;2024-02-23T07:39:37;27.47;;;5.10;;
12990;SDS011;6560;57.692;11.958;2024-02-23T07:42:03;22.37;;;4.50;;
12990;SDS011;6560;57.692;11.958;2024-02-23T07:44:28;17.93;;;3.93;;
12990;SDS011;6560;57.692;11.958;2024-02-23T07:46:54;21.37;;;5.20;;
12990;SDS011;6560;57.692;11.958;2024-02-23T07:49:20;27.33;;;5.37;;
12990;SDS011;6560;57.692;11.958;2024-02-23T07:51:47;34.60;;;5.70;;
12990;SDS011;6560;57.692;11.958;2024-02-23T07:54:13;17.93;;;5.20;;
12990;SDS011;6560;57.692;11.958;2024-02-23T07:56:38;25.73;;;5.10;;
12990;SDS011;6560;57.692;11.958;2024-02-23T07:59:03;19.97;;;4.83;;
12990;SDS011;6560;57.692;11.958;2024-02-23T08:01:29;23.03;;;5.03;;
12990;SDS011;6560;57.692;11.958;2024-02-23T08:03:55;23.17;;;5.97;;
12990;SDS011;6560;57.692;11.958;2024-02-23T08:06:21;19.40;;;4.57;;
12990;SDS011;6560;57.692;11.958;2024-02-23T08:08:46;16.70;;;3.37;;
12990;SDS011;6560;57.692;11.958;2024-02-23T08:11:12;26.70;;;5.17;;
12990;SDS011;6560;57.692;11.958;2024-02-23T08:13:38;27.30;;;5.83;;
12990;SDS011;6560;57.692;11.958;2024-02-23T08:16:04;26.23;;;6.90;;
12990;SDS011;6560;57.692;11.958;2024-02-23T08:18:31;19.57;;;4.50;;
12990;SDS011;6560;57.692;11.958;2024-02-23T08:20:56;30.60;;;6.43;;
12990;SDS011;6560;57.692;11.958;2024-02-23T08:23:23;20.63;;;4.67;;
12990;SDS011;6560;57.692;11.958;2024-02-23T08:25:49;18.60;;;4.30;;
12990;SDS011;6560;57.692;11.958;2024-02-23T08:28:15;21.13;;;4.27;;
12990;SDS011;6560;57.692;11.958;2024-02-23T08:30:41;36.83;;;7.10;;
12990;SDS011;6560;57.692;11.958;2024-02-23T08:33:06;26.07;;;4.63;;
12990;SDS011;6560;57.692;11.958;2024-02-23T08:35:35;24.10;;;4.17;;
12990;SDS011;6560;57.692;11.958;2024-02-23T08:38:00;19.43;;;4.97;;
12990;SDS011;6560;57.692;11.958;2024-02-23T08:40:26;22.30;;;4.57;;
12990;SDS011;6560;57.692;11.958;2024-02-23T08:42:51;28.90;;;5.60;;
12990;SDS011;6560;57.692;11.958;2024-02-23T08:45:17;39.90;;;6.90;;
12990;SDS011;6560;57.692;11.958;2024-02-23T08:47:43;30.00;;;6.50;;
12990;SDS011;6560;57.692;11.958;2024-02-23T08:50:08;21.07;;;4.13;;
12990;SDS011;6560;57.692;11.958;2024-02-23T08:52:34;20.57;;;5.17;;
12990;SDS011;6560;57.692;11.958;2024-02-23T08:55:00;17.70;;;4.70;;
12990;SDS011;6560;57.692;11.958;2024-02-23T08:57:25;22.83;;;4.63;;
12990;SDS011;6560;57.692;11.958;2024-02-23T08:59:52;23.13;;;5.37;;
12990;SDS011;6560;57.692;11.958;2024-02-23T09:02:18;17.73;;;4.67;;
12990;SDS011;6560;57.692;11.958;2024-02-23T09:04:44;15.87;;;3.77;;
12990;SDS011;6560;57.692;11.958;2024-02-23T09:07:10;16.67;;;3.50;;
12990;SDS011;6560;57.692;11.958;2024-02-23T09:09:36;14.97;;;3.17;;
12990;SDS011;6560;57.692;11.958;2024-02-23T09:12:02;23.67;;;4.87;;
12990;SDS011;6560;57.692;11.958;2024-02-23T09:14:27;16.00;;;4.77;;
12990;SDS011;6560;57.692;11.958;2024-02-23T09:16:53;15.10;;;3.60;;
12990;SDS011;6560;57.692;11.958;2024-02-23T09:19:19;20.83;;;5.13;;
12990;SDS011;6560;57.692;11.958;2024-02-23T09:21:45;20.97;;;3.83;;
12990;SDS011;6560;57.692;11.958;2024-02-23T09:24:11;12.23;;;4.03;;
12990;SDS011;6560;57.692;11.958;2024-02-23T09:26:36;20.53;;;5.07;;
12990;SDS011;6560;57.692;11.958;2024-02-23T09:29:02;20.03;;;5.30;;
12990;SDS011;6560;57.692;11.958;2024-02-23T09:31:27;20.80;;;4.43;;
12990;SDS011;6560;57.692;11.958;2024-02-23T09:33:56;21.07;;;4.90;;
12990;SDS011;6560;57.692;11.958;2024-02-23T09:36:23;19.63;;;3.97;;
12990;SDS011;6560;57.692;11.958;2024-02-23T09:38:49;19.13;;;5.13;;
12990;SDS011;6560;57.692;11.958;2024-02-23T09:41:19;21.77;;;5.20;;
12990;SDS011;6560;57.692;11.958;2024-02-23T09:43:46;22.10;;;5.67;;
12990;SDS011;6560;57.692;11.958;2024-02-23T09:46:13;31.17;;;6.40;;
12990;SDS011;6560;57.692;11.958;2024-02-23T09:48:40;21.30;;;4.67;;
12990;SDS011;6560;57.692;11.958;2024-02-23T09:51:07;27.33;;;5.23;;
12990;SDS011;6560;57.692;11.958;2024-02-23T09:53:33;19.00;;;4.50;;
12990;SDS011;6560;57.692;11.958;2024-02-23T09:56:01;23.93;;;4.37;;
12990;SDS011;6560;57.692;11.958;2024-02-23T09:58:28;25.60;;;6.07;;
12990;SDS011;6560;57.692;11.958;2024-02-23T10:00:57;18.87;;;4.23;;
12990;SDS011;6560;57.692;11.958;2024-02-23T10:03:24;23.17;;;5.40;;
12990;SDS011;6560;57.692;11.958;2024-02-23T10:05:51;21.93;;;4.87;;
12990;SDS011;6560;57.692;11.958;2024-02-23T10:08:17;26.83;;;5.67;;
12990;SDS011;6560;57.692;11.958;2024-02-23T10:10:42;19.73;;;3.70;;
12990;SDS011;6560;57.692;11.958;2024-02-23T10:13:12;27.70;;;4.87;;
12990;SDS011;6560;57.692;11.958;2024-02-23T10:15:38;22.43;;;5.07;;
12990;SDS011;6560;57.692;11.958;2024-02-23T10:18:03;23.77;;;4.40;;
12990;SDS011;6560;57.692;11.958;2024-02-23T10:20:29;22.47;;;5.90;;
12990;SDS011;6560;57.692;11.958;2024-02-23T10:22:56;27.90;;;4.53;;
12990;SDS011;6560;57.692;11.958;2024-02-23T10:25:22;29.13;;;5.47;;
12990;SDS011;6560;57.692;11.958;2024-02-23T10:27:47;24.57;;;5.23;;
12990;SDS011;6560;57.692;11.958;2024-02-23T10:30:13;16.53;;;4.37;;
12990;SDS011;6560;57.692;11.958;2024-02-23T10:32:40;17.93;;;5.00;;
12990;SDS011;6560;57.692;11.958;2024-02-23T10:35:09;18.33;;;4.93;;
12990;SDS011;6560;57.692;11.958;2024-02-23T10:37:38;20.97;;;4.27;;
12990;SDS011;6560;57.692;11.958;2024-02-23T10:40:04;20.97;;;4.60;;
12990;SDS011;6560;57.692;11.958;2024-02-23T10:42:33;17.53;;;4.47;;
12990;SDS011;6560;57.692;11.958;2024-02-23T10:44:59;20.87;;;3.93;;
12990;SDS011;6560;57.692;11.958;2024-02-23T10:47:26;24.33;;;5.03;;
12990;SDS011;6560;57.692;11.958;2024-02-23T10:49:52;23.00;;;5.47;;
12990;SDS011;6560;57.692;11.958;2024-02-23T10:52:18;26.37;;;5.00;;
12990;SDS011;6560;57.692;11.958;2024-02-23T10:54:45;24.27;;;5.83;;
12990;SDS011;6560;57.692;11.958;2024-02-23T10:57:11;22.17;;;4.80;;
12990;SDS011;6560;57.692;11.958;2024-02-23T10:59:38;17.00;;;4.97;;
12990;SDS011;6560;57.692;11.958;2024-02-23T11:02:04;19.83;;;4.57;;
12990;SDS011;6560;57.692;11.958;2024-02-23T11:04:30;16.00;;;4.60;;
12990;SDS011;6560;57.692;11.958;2024-02-23T11:06:56;18.20;;;4.53;;
12990;SDS011;6560;57.692;11.958;2024-02-23T11:09:29;16.90;;;4.50;;
12990;SDS011;6560;57.692;11.958;2024-02-23T11:11:57;21.03;;;4.93;;
12990;SDS011;6560;57.692;11.958;2024-02-23T11:14:30;22.73;;;5.17;;
12990;SDS011;6560;57.692;11.958;2024-02-23T11:16:57;17.33;;;4.67;;
12990;SDS011;6560;57.692;11.958;2024-02-23T11:19:31;22.83;;;4.73;;
12990;SDS011;6560;57.692;11.958;2024-02-23T11:22:09;22.77;;;4.53;;
12990;SDS011;6560;57.692;11.958;2024-02-23T11:24:34;19.77;;;4.13;;
12990;SDS011;6560;57.692;11.958;2024-02-23T11:27:00;24.43;;;5.03;;
12990;SDS011;6560;57.692;11.958;2024-02-23T11:29:33;21.60;;;4.60;;
12990;SDS011;6560;57.692;11.958;2024-02-23T11:31:59;15.80;;;4.20;;
12990;SDS011;6560;57.692;11.958;2024-02-23T11:34:27;25.70;;;6.50;;
12990;SDS011;6560;57.692;11.958;2024-02-23T11:36:53;16.13;;;4.10;;
12990;SDS011;6560;57.692;11.958;2024-02-23T11:39:19;28.10;;;6.27;;
12990;SDS011;6560;57.692;11.958;2024-02-23T11:41:47;13.87;;;4.00;;
12990;SDS011;6560;57.692;11.958;2024-02-23T11:44:14;18.10;;;4.83;;
12990;SDS011;6560;57.692;11.958;2024-02-23T11:46:42;31.90;;;5.30;;
12990;SDS011;6560;57.692;11.958;2024-02-23T11:49:08;36.07;;;6.40;;
12990;SDS011;6560;57.692;11.958;2024-02-23T11:51:33;20.33;;;4.57;;
12990;SDS011;6560;57.692;11.958;2024-02-23T11:53:59;15.03;;;4.73;;
12990;SDS011;6560;57.692;11.958;2024-02-23T11:56:25;24.40;;;3.67;;
12990;SDS011;6560;57.692;11.958;2024-02-23T11:58:51;25.43;;;5.43;;
12990;SDS011;6560;57.692;11.958;2024-02-23T12:01:18;25.20;;;3.67;;
12990;SDS011;6560;57.692;11.958;2024-02-23T12:03:44;14.53;;;3.37;;
12990;SDS011;6560;57.692;11.958;2024-02-23T12:06:09;12.03;;;3.40;;
12990;SDS011;6560;57.692;11.958;2024-02-23T12:08:35;20.83;;;4.50;;
12990;SDS011;6560;57.692;11.958;2024-02-23T12:11:11;17.90;;;4.13;;
12990;SDS011;6560;57.692;11.958;2024-02-23T12:13:37;23.03;;;3.70;;
12990;SDS011;6560;57.692;11.958;2024-02-23T12:16:03;22.93;;;4.37;;
12990;SDS011;6560;57.692;11.958;2024-02-23T12:18:29;16.23;;;4.00;;
12990;SDS011;6560;57.692;11.958;2024-02-23T12:21:07;16.33;;;3.87;;
12990;SDS011;6560;57.692;11.958;2024-02-23T12:23:42;21.93;;;5.33;;
12990;SDS011;6560;57.692;11.958;2024-02-23T12:26:09;15.00;;;4.77;;
12990;SDS011;6560;57.692;11.958;2024-02-23T12:28:35;14.60;;;3.70;;
12990;SDS011;6560;57.692;11.958;2024-02-23T12:31:05;21.43;;;4.70;;
12990;SDS011;6560;57.692;11.958;2024-02-23T12:33:31;16.90;;;3.93;;
12990;SDS011;6560;57.692;11.958;2024-02-23T12:35:58;21.80;;;4.40;;
12990;SDS011;6560;57.692;11.958;2024-02-23T12:38:24;14.40;;;2.90;;
12990;SDS011;6560;57.692;11.958;2024-02-23T12:40:50;17.93;;;3.87;;
12990;SDS011;6560;57.692;11.958;2024-02-23T12:43:16;17.33;;;3.80;;
12990;SDS011;6560;57.692;11.958;2024-02-23T12:45:41;23.20;;;4.97;;
12990;SDS011;6560;57.692;11.958;2024-02-23T12:48:09;15.90;;;3.83;;
12990;SDS011;6560;57.692;11.958;2024-02-23T12:50:34;18.20;;;4.23;;
12990;SDS011;6560;57.692;11.958;2024-02-23T12:53:00;21.43;;;4.47;;
12990;SDS011;6560;57.692;11.958;2024-02-23T12:55:26;18.70;;;3.53;;
12990;SDS011;6560;57.692;11.958;2024-02-23T12:57:51;19.23;;;3.50;;
12990;SDS011;6560;57.692;11.958;2024-02-23T13:00:17;13.60;;;2.93;;
12990;SDS011;6560;57.692;11.958;2024-02-23T13:02:42;11.10;;;2.47;;
12990;SDS011;6560;57.692;11.958;2024-02-23T13:05:08;10.60;;;2.50;;
12990;SDS011;6560;57.692;11.958;2024-02-23T13:07:33;8.10;;;2.33;;
12990;SDS011;6560;57.692;11.958;2024-02-23T13:09:59;11.27;;;2.43;;
12990;SDS011;6560;57.692;11.958;2024-02-23T13:12:24;8.67;;;1.87;;
12990;SDS011;6560;57.692;11.958;2024-02-23T13:14:53;17.77;;;2.33;;
12990;SDS011;6560;57.692;11.958;2024-02-23T13:17:18;14.37;;;3.43;;
12990;SDS011;6560;57.692;11.958;2024-02-23T13:19:44;16.53;;;3.47;;
12990;SDS011;6560;57.692;11.958;2024-02-23T13:22:09;13.13;;;2.67;;
12990;SDS011;6560;57.692;11.958;2024-02-23T13:24:35;11.33;;;2.93;;
12990;SDS011;6560;57.692;11.958;2024-02-23T13:27:00;12.67;;;2.77;;
12990;SDS011;6560;57.692;11.958;2024-02-23T13:29:25;10.30;;;3.37;;
12990;SDS011;6560;57.692;11.958;2024-02-23T13:31:51;12.77;;;2.93;;
12990;SDS011;6560;57.692;11.958;2024-02-23T13:34:17;15.23;;;2.63;;
12990;SDS011;6560;57.692;11.958;2024-02-23T13:36:43;13.80;;;2.80;;
12990;SDS011;6560;57.692;11.958;2024-02-23T13:39:09;13.20;;;2.77;;
12990;SDS011;6560;57.692;11.958;2024-02-23T13:41:34;12.23;;;3.17;;
12990;SDS011;6560;57.692;11.958;2024-02-23T13:44:00;11.00;;;3.00;;
12990;SDS011;6560;57.692;11.958;2024-02-23T13:46:25;7.33;;;1.73;;
12990;SDS011;6560;57.692;11.958;2024-02-23T13:49:01;10.50;;;2.23;;
12990;SDS011;6560;57.692;11.958;2024-02-23T13:51:31;10.07;;;3.40;;
12990;SDS011;6560;57.692;11.958;2024-02-23T13:53:57;11.53;;;2.33;;
12990;SDS011;6560;57.692;11.958;2024-02-23T13:56:22;11.60;;;2.40;;
12990;SDS011;6560;57.692;11.958;2024-02-23T13:58:48;15.13;;;2.60;;
12990;SDS011;6560;57.692;11.958;2024-02-23T14:01:14;14.37;;;2.13;;
12990;SDS011;6560;57.692;11.958;2024-02-23T14:03:40;11.13;;;2.80;;
12990;SDS011;6560;57.692;11.958;2024-02-23T14:06:05;22.87;;;4.97;;
12990;SDS011;6560;57.692;11.958;2024-02-23T14:08:31;12.60;;;2.97;;
12990;SDS011;6560;57.692;11.958;2024-02-23T14:10:59;11.97;;;2.60;;
12990;SDS011;6560;57.692;11.958;2024-02-23T14:13:27;11.80;;;2.63;;
12990;SDS011;6560;57.692;11.958;2024-02-23T14:15:53;8.53;;;2.33;;
12990;SDS011;6560;57.692;11.958;2024-02-23T14:18:19;8.30;;;2.67;;
12990;SDS011;6560;57.692;11.958;2024-02-23T14:20:44;15.37;;;2.77;;
12990;SDS011;6560;57.692;11.958;2024-02-23T14:23:10;15.03;;;3.00;;
12990;SDS011;6560;57.692;11.958;2024-02-23T14:25:35;6.90;;;2.30;;
12990;SDS011;6560;57.692;11.958;2024-02-23T14:28:01;11.07;;;2.60;;
12990;SDS011;6560;57.692;11.958;2024-02-23T14:30:26;11.50;;;3.57;;